createdAt,value
2022-10-19T00:01:18.665Z,102792.56
2022-10-19T00:06:28.158Z,102795.00
2022-10-19T00:09:00.554Z,102788.16
2022-10-19T00:11:29.560Z,102774.16
2022-10-19T00:13:58.332Z,102781.63
2022-10-19T00:16:28.907Z,102779.22
2022-10-19T00:19:02.569Z,102776.38
2022-10-19T00:21:30.446Z,102784.19
2022-10-19T00:23:57.464Z,102777.13
2022-10-19T00:26:25.394Z,102775.47
2022-10-19T00:28:55.460Z,102776.09
2022-10-19T04:33:16.063Z,102694.00
2022-10-19T04:35:43.013Z,102693.78
2022-10-19T04:38:10.053Z,102691.31
2022-10-19T04:40:37.689Z,102701.72
2022-10-19T04:43:05.479Z,102705.34
2022-10-19T04:45:35.739Z,102692.19
2022-10-19T04:48:02.745Z,102690.41
2022-10-19T04:50:29.729Z,102683.50
2022-10-19T04:52:56.705Z,102678.16
2022-10-19T05:27:27.673Z,102657.09
2022-10-19T05:29:54.639Z,102655.50
2022-10-19T05:32:21.656Z,102661.50
2022-10-19T05:34:48.588Z,102664.06
2022-10-19T05:37:17.108Z,102656.25
2022-10-19T05:39:44.291Z,102649.34
2022-10-19T05:42:11.370Z,102657.00
2022-10-19T05:47:10.512Z,102656.97
2022-10-19T05:49:37.491Z,102635.41
2022-10-19T05:52:04.764Z,102632.63
2022-10-19T05:54:31.816Z,102634.28
2022-10-19T05:56:58.923Z,102637.03
2022-10-19T05:59:26.020Z,102640.34
2022-10-19T06:01:53.047Z,102651.69
2022-10-19T06:41:10.562Z,102654.81
2022-10-19T06:43:37.623Z,102654.06
2022-10-19T06:46:11.253Z,102647.50
2022-10-19T06:48:38.787Z,102651.31
2022-10-19T06:51:10.076Z,102643.44
2022-10-19T06:53:37.740Z,102646.97
2022-10-19T06:56:06.644Z,102653.94
2022-10-19T06:58:38.093Z,102654.25
2022-10-19T07:01:10.276Z,102656.94
2022-10-19T07:03:37.971Z,102654.47
2022-10-19T07:06:08.565Z,102650.94
2022-10-19T07:08:38.229Z,102650.50
2022-10-19T07:11:09.702Z,102645.31
2022-10-19T07:13:36.774Z,102642.09
2022-10-19T07:16:17.554Z,102644.09
2022-10-19T07:18:49.372Z,102628.41
2022-10-19T07:21:18.188Z,102629.44
2022-10-19T07:23:47.420Z,102629.81
2022-10-19T07:26:26.575Z,102616.66
2022-10-19T07:28:56.565Z,102609.84
2022-10-19T07:31:26.185Z,102615.53
2022-10-19T07:34:01.788Z,102608.06
2022-10-19T07:36:33.191Z,102613.47
2022-10-19T07:39:02.589Z,102611.06
2022-10-19T07:41:29.594Z,102600.06
2022-10-19T07:43:57.886Z,102606.34
2022-10-19T07:46:29.255Z,102593.19
2022-10-19T07:48:56.356Z,102592.84
2022-10-19T07:51:23.472Z,102593.06
2022-10-19T07:53:50.897Z,102593.34
2022-10-19T07:56:21.188Z,102591.03
2022-10-19T07:58:50.416Z,102592.97
2022-10-19T08:01:24.779Z,102588.28
2022-10-19T08:04:43.267Z,102583.03
2022-10-19T08:06:44.701Z,102586.75
2022-10-19T08:09:27.715Z,102580.31
2022-10-19T08:11:58.793Z,102580.44
2022-10-19T08:14:26.261Z,102579.22
2022-10-19T08:16:53.289Z,102572.53
2022-10-19T08:19:20.258Z,102568.16
2022-10-19T08:21:47.718Z,102578.16
2022-10-19T08:24:17.809Z,102579.22
2022-10-19T08:26:45.199Z,102582.34
2022-10-19T08:29:19.585Z,102578.97
2022-10-19T08:31:48.805Z,102570.63
2022-10-19T08:34:16.114Z,102576.00
2022-10-19T08:36:43.892Z,102569.78
2022-10-19T08:39:12.786Z,102579.00
2022-10-19T08:42:10.722Z,102595.84
2022-10-19T08:45:25.702Z,102597.28
2022-10-19T08:47:58.435Z,102596.56
2022-10-19T08:50:41.654Z,102592.63
2022-10-19T08:53:35.627Z,102591.19
2022-10-19T08:56:50.510Z,102593.25
2022-10-19T08:59:52.062Z,102581.25
2022-10-19T09:02:39.406Z,102588.38
2022-10-19T09:05:19.815Z,102585.25
2022-10-19T09:07:50.294Z,102577.44
2022-10-19T09:10:25.506Z,102576.00
2022-10-19T09:13:03.122Z,102560.63
2022-10-19T09:15:38.557Z,102564.13
2022-10-19T09:18:25.420Z,102563.38
2022-10-19T09:21:46.340Z,102561.13
2022-10-19T09:24:39.159Z,102561.44
2022-10-19T09:27:15.314Z,102564.31
2022-10-19T09:29:48.297Z,102561.97
2022-10-19T09:32:25.814Z,102553.06
2022-10-19T09:35:27.521Z,102550.00
2022-10-19T09:37:55.841Z,102550.22
2022-10-19T09:40:29.739Z,102548.03
2022-10-19T09:42:58.237Z,102541.91
2022-10-19T09:45:42.122Z,102534.03
2022-10-19T09:48:45.613Z,102529.69
2022-10-19T09:51:16.448Z,102523.94
2022-10-19T09:53:53.147Z,102518.59
2022-10-19T09:56:26.576Z,102514.56
2022-10-19T09:58:59.573Z,102503.41
2022-10-19T10:01:43.010Z,102500.00
2022-10-19T10:04:17.151Z,102501.00
2022-10-19T10:06:48.231Z,102494.16
2022-10-19T10:09:23.730Z,102485.44
2022-10-19T10:14:35.218Z,102472.66
2022-10-19T10:17:14.450Z,102473.59
2022-10-19T10:20:00.226Z,102463.31
2022-10-19T10:22:35.597Z,102473.91
2022-10-19T10:25:18.079Z,102459.63
2022-10-19T10:28:19.020Z,102461.81
2022-10-19T10:30:48.545Z,102456.59
2022-10-19T10:33:43.761Z,102449.50
2022-10-19T10:36:12.582Z,102454.94
2022-10-19T10:38:51.081Z,102450.72
2022-10-19T10:41:23.494Z,102453.66
2022-10-19T10:44:06.687Z,102448.53
2022-10-19T10:46:59.385Z,102440.69
2022-10-19T10:49:36.682Z,102440.78
2022-10-19T10:52:15.964Z,102428.44
2022-10-19T10:54:57.827Z,102425.22
2022-10-19T10:57:28.415Z,102415.50
2022-10-19T11:00:20.079Z,102415.69
2022-10-19T11:03:01.242Z,102421.22
2022-10-19T11:06:00.679Z,102415.94
2022-10-19T11:08:52.472Z,102415.03
2022-10-19T11:11:23.089Z,102408.03
2022-10-19T11:14:31.029Z,102399.47
2022-10-19T11:17:15.331Z,102391.63
2022-10-19T11:19:45.539Z,102389.09
2022-10-19T11:22:26.383Z,102376.78
2022-10-19T11:25:25.069Z,102373.31
2022-10-19T11:28:16.039Z,102365.72
2022-10-19T11:31:21.236Z,102361.22
2022-10-19T11:34:27.009Z,102361.25
2022-10-19T11:37:14.933Z,102353.53
2022-10-19T11:39:51.153Z,102353.75
2022-10-19T11:42:33.511Z,102345.97
2022-10-19T11:45:20.256Z,102341.59
2022-10-19T11:48:18.681Z,102340.81
2022-10-19T11:51:22.282Z,102331.88
2022-10-19T11:54:49.588Z,102316.84
2022-10-19T11:57:28.033Z,102315.94
2022-10-19T12:00:39.348Z,102304.53
2022-10-19T12:03:34.222Z,102298.38
2022-10-19T12:06:39.307Z,102299.44
2022-10-19T12:09:40.204Z,102299.63
2022-10-19T12:12:25.125Z,102286.19
2022-10-19T12:15:00.936Z,102288.16
2022-10-19T12:17:33.149Z,102278.38
2022-10-19T12:20:09.461Z,102279.28
2022-10-19T12:22:38.466Z,102272.22
2022-10-19T12:25:06.973Z,102274.09
2022-10-19T12:27:40.479Z,102267.81
2022-10-19T12:30:15.040Z,102269.69
2022-10-19T12:33:22.288Z,102260.84
2022-10-19T12:35:53.692Z,102250.19
2022-10-19T12:39:01.552Z,102244.00
2022-10-19T12:42:23.783Z,102236.13
2022-10-19T12:45:19.764Z,102233.53
2022-10-19T12:48:07.808Z,102224.66
2022-10-19T12:50:49.822Z,102214.16
2022-10-19T12:53:40.918Z,102213.34
2022-10-19T12:56:16.430Z,102201.84
2022-10-19T12:58:56.630Z,102207.16
2022-10-19T13:01:34.767Z,102201.91
2022-10-19T13:04:14.472Z,102201.03
2022-10-19T13:06:51.793Z,102201.06
2022-10-19T13:09:36.702Z,102202.81
2022-10-19T13:12:19.457Z,102203.84
2022-10-19T13:14:58.989Z,102191.47
2022-10-19T13:17:36.129Z,102190.53
2022-10-19T13:20:25.342Z,102185.28
2022-10-19T13:23:13.168Z,102173.88
2022-10-19T13:25:44.092Z,102172.97
2022-10-19T13:28:10.986Z,102167.72
2022-10-19T13:30:47.079Z,102170.25
2022-10-19T13:33:29.105Z,102175.47
2022-10-19T13:35:59.043Z,102173.69
2022-10-19T13:38:31.512Z,102170.16
2022-10-19T13:41:08.897Z,102159.63
2022-10-19T13:43:57.349Z,102154.38
2022-10-19T13:46:30.076Z,102152.59
2022-10-19T13:49:08.605Z,102144.66
2022-10-19T13:52:17.890Z,102142.00
2022-10-19T13:55:45.098Z,102134.06
2022-10-19T13:58:31.534Z,102139.41
2022-10-19T14:01:25.949Z,102132.31
2022-10-19T14:04:19.194Z,102129.78
2022-10-19T14:07:07.539Z,102128.00
2022-10-19T14:09:51.342Z,102123.47
2022-10-19T14:12:27.655Z,102114.63
2022-10-19T14:14:55.036Z,102112.84
2022-10-19T14:17:27.352Z,102113.75
2022-10-19T14:20:00.060Z,102119.91
2022-10-19T14:22:36.147Z,102116.34
2022-10-19T14:25:27.611Z,102098.63
2022-10-19T14:28:01.989Z,102107.38
2022-10-19T14:30:32.831Z,102090.50
2022-10-19T14:33:02.644Z,102098.38
2022-10-19T14:35:35.681Z,102091.41
2022-10-19T14:38:06.848Z,102102.00
2022-10-19T14:40:40.168Z,102095.78
2022-10-19T14:43:29.409Z,102101.09
2022-10-19T14:46:08.674Z,102098.44
2022-10-19T14:48:47.459Z,102094.94
2022-10-19T14:51:36.464Z,102091.31
2022-10-19T14:54:38.935Z,102080.63
2022-10-19T14:57:29.103Z,102072.63
2022-10-19T15:00:01.895Z,102066.38
2022-10-19T15:02:46.381Z,102061.88
2022-10-19T15:05:23.714Z,102058.31
2022-10-19T15:07:51.271Z,102052.97
2022-10-19T15:10:29.377Z,102045.94
2022-10-19T15:13:06.560Z,102042.38
2022-10-19T15:15:35.901Z,102041.34
2022-10-19T15:18:04.409Z,102034.22
2022-10-19T15:20:49.486Z,102035.09
2022-10-19T15:23:41.452Z,102029.72
2022-10-19T15:26:27.350Z,102028.84
2022-10-19T15:29:07.467Z,102028.81
2022-10-19T15:31:34.679Z,102019.78
2022-10-19T15:34:03.754Z,102026.88
2022-10-19T15:36:33.089Z,102025.09
2022-10-19T15:39:24.487Z,102031.22
2022-10-19T15:41:52.578Z,102021.41
2022-10-19T15:44:42.585Z,102011.63
2022-10-19T15:47:15.444Z,102008.09
2022-10-19T15:49:42.345Z,101998.25
2022-10-19T15:52:31.852Z,102001.66
2022-10-19T15:55:00.551Z,101987.50
2022-10-19T15:57:39.299Z,101983.94
2022-10-19T16:00:14.881Z,101981.22
2022-10-19T16:02:42.162Z,101985.63
2022-10-19T16:05:09.619Z,101978.50
2022-10-19T16:07:39.278Z,101969.59
2022-10-19T16:10:08.612Z,101961.56
2022-10-19T16:12:35.597Z,101963.34
2022-10-19T16:15:04.099Z,101954.44
2022-10-19T16:17:31.187Z,101959.66
2022-10-19T16:19:58.335Z,101949.94
2022-10-19T16:22:25.380Z,101935.66
2022-10-19T16:24:52.421Z,101930.38
2022-10-19T16:27:19.464Z,101923.13
2022-10-19T16:29:46.539Z,101928.47
2022-10-19T16:32:13.527Z,101926.59
2022-10-19T16:34:41.375Z,101917.72
2022-10-19T16:37:08.357Z,101921.25
2022-10-19T16:39:35.434Z,101918.53
2022-10-19T16:42:02.451Z,101915.78
2022-10-19T16:44:29.592Z,101917.44
2022-10-19T16:46:57.926Z,101913.84
2022-10-19T16:49:26.143Z,101923.56
2022-10-19T16:51:56.404Z,101912.97
2022-10-19T16:54:26.754Z,101921.66
2022-10-19T16:56:55.696Z,101929.63
2022-10-19T16:59:22.863Z,101933.97
2022-10-19T17:01:50.448Z,101933.03
2022-10-19T17:04:21.326Z,101939.03
2022-10-19T17:06:48.413Z,101934.63
2022-10-19T17:09:41.303Z,101928.31
2022-10-19T17:12:02.411Z,101935.34
2022-10-19T17:14:29.402Z,101939.66
2022-10-19T17:16:56.462Z,101946.75
2022-10-19T17:19:24.979Z,101944.03
2022-10-19T17:21:54.806Z,101938.78
2022-10-19T17:24:22.789Z,101923.72
2022-10-19T17:26:52.234Z,101936.88
2022-10-19T17:29:21.139Z,101940.31
2022-10-19T17:31:49.652Z,101935.88
2022-10-19T17:34:17.684Z,101931.38
2022-10-19T17:36:46.243Z,101933.91
2022-10-19T17:39:24.433Z,101940.03
2022-10-19T17:41:54.542Z,101944.44
2022-10-19T17:44:22.588Z,101950.56
2022-10-19T17:46:50.185Z,101943.38
2022-10-19T17:49:18.819Z,101945.94
2022-10-19T17:51:45.870Z,101940.59
2022-10-19T17:54:14.609Z,101941.47
2022-10-19T17:56:45.194Z,101951.09
2022-10-19T17:59:13.149Z,101946.50
2022-10-19T18:01:40.629Z,101939.53
2022-10-19T18:04:07.783Z,101924.47
2022-10-19T18:06:37.769Z,101933.25
2022-10-19T18:09:08.197Z,101932.22
2022-10-19T18:11:42.119Z,101927.81
2022-10-19T18:14:10.887Z,101922.47
2022-10-19T18:16:45.436Z,101919.81
2022-10-19T18:19:14.984Z,101914.41
2022-10-19T18:21:46.412Z,101900.25
2022-10-19T18:24:20.141Z,101899.31
2022-10-19T18:27:01.052Z,101897.59
2022-10-19T18:29:28.462Z,101893.13
2022-10-19T18:31:56.944Z,101885.16
2022-10-19T18:34:26.460Z,101876.28
2022-10-19T18:36:54.431Z,101873.53
2022-10-19T18:39:22.559Z,101873.53
2022-10-19T18:41:56.821Z,101868.22
2022-10-19T18:44:26.544Z,101858.66
2022-10-19T18:46:56.943Z,101854.94
2022-10-19T18:49:26.025Z,101859.38
2022-10-19T18:51:55.473Z,101869.91
2022-10-19T18:54:26.366Z,101863.63
2022-10-19T18:56:54.581Z,101861.84
2022-10-19T18:59:22.092Z,101858.31
2022-10-19T19:01:49.423Z,101850.28
2022-10-19T19:04:16.871Z,101850.38
2022-10-19T19:06:44.162Z,101844.16
2022-10-19T19:09:12.901Z,101835.19
2022-10-19T19:11:41.280Z,101831.75
2022-10-19T19:14:16.824Z,101816.72
2022-10-19T19:16:45.980Z,101814.03
2022-10-19T19:19:16.850Z,101813.13
2022-10-19T19:21:45.980Z,101809.53
2022-10-19T19:24:18.760Z,101802.38
2022-10-19T19:26:50.696Z,101798.78
2022-10-19T19:29:19.617Z,101797.19
2022-10-19T19:31:48.268Z,101795.31
2022-10-19T19:34:16.039Z,101782.16
2022-10-19T19:36:48.125Z,101791.69
2022-10-19T19:39:20.335Z,101778.47
2022-10-19T19:41:49.486Z,101793.28
2022-10-19T19:44:19.851Z,101781.84
2022-10-19T19:46:47.277Z,101780.16
2022-10-19T19:49:14.938Z,101773.97
2022-10-19T19:51:42.546Z,101776.53
2022-10-19T19:54:09.713Z,101772.19
2022-10-19T19:56:37.505Z,101776.53
2022-10-19T19:59:04.798Z,101769.44
2022-10-19T20:01:32.491Z,101771.16
2022-10-19T20:06:37.427Z,101774.56
2022-10-19T20:09:06.639Z,101773.63
2022-10-19T20:11:37.144Z,101767.44
2022-10-19T20:14:06.933Z,101780.53
2022-10-19T20:16:34.333Z,101771.72
2022-10-19T20:19:13.869Z,101772.50
2022-10-19T20:21:41.411Z,101769.84
2022-10-19T20:24:08.744Z,101763.75
2022-10-19T20:26:36.539Z,101747.78
2022-10-19T20:29:05.039Z,101754.84
2022-10-19T20:31:33.588Z,101743.41
2022-10-19T20:34:03.086Z,101745.94
2022-10-19T20:36:30.019Z,101747.56
2022-10-19T20:38:58.855Z,101737.88
2022-10-19T20:41:28.507Z,101742.22
2022-10-19T20:43:56.894Z,101729.81
2022-10-19T20:46:27.546Z,101740.34
2022-10-19T20:48:57.942Z,101736.81
2022-10-19T20:51:31.599Z,101728.88
2022-10-19T20:54:01.947Z,101719.25
2022-10-19T20:56:32.912Z,101727.09
2022-10-19T20:59:30.355Z,101734.09
2022-10-19T21:01:57.950Z,101724.34
2022-10-19T21:04:28.407Z,101717.31
2022-10-19T21:06:55.440Z,101710.25
2022-10-19T21:09:23.689Z,101719.94
2022-10-19T21:11:52.202Z,101713.78
2022-10-19T21:14:28.697Z,101711.06
2022-10-19T21:17:00.162Z,101711.06
2022-10-19T21:19:29.828Z,101704.91
2022-10-19T21:22:02.151Z,101703.19
2022-10-19T21:24:33.639Z,101703.97
2022-10-19T21:27:04.794Z,101703.19
2022-10-19T21:29:32.049Z,101697.97
2022-10-19T21:31:59.222Z,101692.53
2022-10-19T21:34:29.315Z,101694.25
2022-10-19T21:36:56.904Z,101687.31
2022-10-19T21:39:23.982Z,101682.72
2022-10-19T21:41:51.016Z,101675.72
2022-10-19T21:44:19.204Z,101681.91
2022-10-19T21:46:48.418Z,101686.22
2022-10-19T21:49:15.847Z,101678.38
2022-10-19T21:51:45.205Z,101685.34
2022-10-19T21:54:21.627Z,101691.50
2022-10-19T21:56:48.938Z,101687.03
2022-10-19T21:59:16.354Z,101694.88
2022-10-19T22:01:43.781Z,101679.94
2022-10-19T22:04:16.975Z,101681.59
2022-10-19T22:06:44.684Z,101679.94
2022-10-19T22:09:18.119Z,101674.69
2022-10-19T22:11:46.064Z,101672.84
2022-10-19T22:14:15.167Z,101665.78
2022-10-19T22:16:42.833Z,101661.47
2022-10-19T22:19:10.847Z,101650.06
2022-10-19T22:24:14.151Z,101629.00
2022-10-19T22:26:45.221Z,101628.97
2022-10-19T22:29:12.412Z,101626.34
2022-10-19T22:31:39.601Z,101627.09
2022-10-19T22:34:11.713Z,101627.00
2022-10-19T22:36:39.027Z,101624.47
2022-10-19T22:39:06.505Z,101634.13
2022-10-19T22:41:33.593Z,101627.91
2022-10-19T22:44:00.771Z,101614.78
2022-10-19T22:46:27.715Z,101609.34
2022-10-19T22:48:54.771Z,101612.91
2022-10-19T22:51:21.918Z,101611.03
2022-10-19T22:53:49.039Z,101614.63
2022-10-19T22:56:16.071Z,101610.25
2022-10-19T22:58:43.038Z,101600.53
2022-10-19T23:01:13.389Z,101605.75
2022-10-19T23:03:41.207Z,101595.22
2022-10-19T23:06:11.036Z,101595.22
2022-10-19T23:08:38.268Z,101584.69
2022-10-19T23:11:05.534Z,101582.84
2022-10-19T23:13:32.494Z,101579.31
2022-10-19T23:15:59.534Z,101580.19
2022-10-19T23:18:26.544Z,101577.53
2022-10-19T23:20:59.347Z,101577.50
2022-10-19T23:23:27.107Z,101574.13
2022-10-19T23:26:19.570Z,101574.91
2022-10-19T23:28:49.463Z,101575.75
2022-10-19T23:31:20.435Z,101566.94
2022-10-19T23:33:47.547Z,101557.28
2022-10-19T23:36:18.527Z,101548.47
2022-10-19T23:38:46.857Z,101552.81
2022-10-19T23:41:14.717Z,101549.25
2022-10-19T23:43:42.372Z,101540.56
2022-10-19T23:46:09.419Z,101536.94
2022-10-19T23:48:37.172Z,101548.34
2022-10-19T23:51:10.750Z,101544.75
2022-10-19T23:53:41.352Z,101535.16
2022-10-19T23:56:18.762Z,101524.66
2022-10-19T23:58:46.790Z,101523.72
